Allegheny County Airport
KAGC : now visible

Airfield :











YOU CAN JOIN US ON...

 
LOGIN :

Register | Disclaimer

   EN    FR    IT 

 









Legend :    VFR   Marginal VFR   IFR   Intensive IFR   Very Intensive IFR
Visi :
Ceiling :
>= 8 km
>= 3000ft
5 to 8 km
1000 to 3000 ft
1500m to 5 km
500 to 1000 ft
800 to 1500m
200 to 500 ft
< 800m
< 200 ft
Symbols :   Thunderstorms  Fog  Heavy snow  Heavy precipitations  Wind > 20 kt






- Airport Elevation : 1252 ft
- IATA code : AGC


KAGC - Allegheny County

CURRENT METAR :
  • 211953Z 32006G19KT 6SM -SN FEW037 BKN046 OVC060 02/M03 A2993 RMK AO2 PK WND 33030/1941 SNE1857B41 SLP150 P0000 T00221028

EXPIRED METARs :
  • 211853Z 31006G22KT 7SM -SN SCT028 BKN037 OVC065 02/M03 A2994 RMK AO2 SNB34 SLP154 P0000 T00221028
  • 211753Z 30009G17KT 10SM BKN034 BKN044 03/M03 A2994 RMK AO2 SNB19E28 SLP153 P0000 60002 I6001 T00281028 10028 20000 51007

TAF KAGC
Valid from the 21 at 18:00 until the 22 at 18:00 UTC


211725Z 2118/2218 31011G19KT P6SM BKN040
TEMPO 2118/2119 -SHSN BKN030
FM220200 28010KT P6SM VCSH BKN050
FM221500 29012G20KT P6SM BKN080
KZOB FIR / North America



MET'MAP, your aeronautical weather chart ! - Copyright ORBIFLY December 2007 - Disclaimer

ORBIFLY MET'MAP TEAM :

Programming & Development : Alexandra Zaïnal
Concept & original design : Baudouin d'Aumeries
Assistance for programming : Marc-Olivier Méhu
Technical & hardware support : Manuel Goepfert

Contact : metmap@orbifly.com




SOURCES & CREDITS :

   NOAA       Earth
Advisory